sensor_id;sensor_type;location;lat;lon;timestamp;pressure;altitude;pressure_sealevel;temperature;humidity
42603;BME280;28233;55.748;48.752;2023-12-20T00:01:26;97349.16;;;0.41;100.00
42603;BME280;28233;55.748;48.752;2023-12-20T00:03:29;97347.75;;;0.44;100.00
42603;BME280;28233;55.748;48.752;2023-12-20T00:05:43;97349.34;;;0.45;100.00
42603;BME280;28233;55.748;48.752;2023-12-20T00:07:46;97342.06;;;0.45;100.00
42603;BME280;28233;55.748;48.752;2023-12-20T00:09:49;97358.44;;;0.49;100.00
42603;BME280;28233;55.748;48.752;2023-12-20T00:11:52;97349.53;;;0.48;100.00
42603;BME280;28233;55.748;48.752;2023-12-20T00:13:55;97357.34;;;0.50;100.00
42603;BME280;28233;55.748;48.752;2023-12-20T00:15:57;97350.03;;;0.50;100.00
42603;BME280;28233;55.748;48.752;2023-12-20T00:18:01;97355.09;;;0.52;100.00
42603;BME280;28233;55.748;48.752;2023-12-20T00:20:04;97350.19;;;0.54;100.00
42603;BME280;28233;55.748;48.752;2023-12-20T00:22:08;97356.41;;;0.54;100.00
42603;BME280;28233;55.748;48.752;2023-12-20T00:24:11;97349.88;;;0.55;100.00
42603;BME280;28233;55.748;48.752;2023-12-20T00:26:14;97342.09;;;0.54;100.00
42603;BME280;28233;55.748;48.752;2023-12-20T00:28:17;97349.88;;;0.55;100.00
42603;BME280;28233;55.748;48.752;2023-12-20T00:30:20;97334.16;;;0.57;100.00
42603;BME280;28233;55.748;48.752;2023-12-20T00:32:23;97352.78;;;0.59;100.00
42603;BME280;28233;55.748;48.752;2023-12-20T00:34:26;97358.19;;;0.59;100.00
42603;BME280;28233;55.748;48.752;2023-12-20T00:36:29;97348.97;;;0.60;100.00
42603;BME280;28233;55.748;48.752;2023-12-20T00:38:32;97351.66;;;0.60;100.00
42603;BME280;28233;55.748;48.752;2023-12-20T00:40:35;97363.25;;;0.60;100.00
42603;BME280;28233;55.748;48.752;2023-12-20T00:42:38;97345.97;;;0.61;100.00
42603;BME280;28233;55.748;48.752;2023-12-20T00:44:41;97361.53;;;0.65;100.00
42603;BME280;28233;55.748;48.752;2023-12-20T00:46:44;97364.25;;;0.65;100.00
42603;BME280;28233;55.748;48.752;2023-12-20T00:48:46;97341.84;;;0.64;100.00
42603;BME280;28233;55.748;48.752;2023-12-20T00:50:49;97364.25;;;0.65;100.00
42603;BME280;28233;55.748;48.752;2023-12-20T00:52:52;97366.94;;;0.65;100.00
42603;BME280;28233;55.748;48.752;2023-12-20T00:54:57;97347.25;;;0.64;100.00
42603;BME280;28233;55.748;48.752;2023-12-20T00:57:00;97346.75;;;0.62;100.00
42603;BME280;28233;55.748;48.752;2023-12-20T00:59:02;97349.81;;;0.69;100.00
42603;BME280;28233;55.748;48.752;2023-12-20T01:01:05;97356.00;;;0.70;100.00
42603;BME280;28233;55.748;48.752;2023-12-20T01:03:08;97339.78;;;0.70;100.00
42603;BME280;28233;55.748;48.752;2023-12-20T01:05:11;97345.19;;;0.70;100.00
42603;BME280;28233;55.748;48.752;2023-12-20T01:07:14;97341.69;;;0.69;100.00
42603;BME280;28233;55.748;48.752;2023-12-20T01:09:17;97334.38;;;0.70;100.00
42603;BME280;28233;55.748;48.752;2023-12-20T01:11:21;97349.81;;;0.69;100.00
42603;BME280;28233;55.748;48.752;2023-12-20T01:13:24;97347.09;;;0.69;100.00
42603;BME280;28233;55.748;48.752;2023-12-20T01:15:27;97337.09;;;0.70;100.00
42603;BME280;28233;55.748;48.752;2023-12-20T01:17:30;97337.09;;;0.70;100.00
42603;BME280;28233;55.748;48.752;2023-12-20T01:19:33;97337.88;;;0.70;100.00
42603;BME280;28233;55.748;48.752;2023-12-20T01:21:36;97336.47;;;0.73;100.00
42603;BME280;28233;55.748;48.752;2023-12-20T01:23:38;97329.47;;;0.72;100.00
42603;BME280;28233;55.748;48.752;2023-12-20T01:25:41;97327.56;;;0.72;100.00
42603;BME280;28233;55.748;48.752;2023-12-20T01:27:44;97339.97;;;0.73;100.00
42603;BME280;28233;55.748;48.752;2023-12-20T01:29:47;97331.53;;;0.75;100.00
42603;BME280;28233;55.748;48.752;2023-12-20T01:31:51;97333.44;;;0.74;100.00
42603;BME280;28233;55.748;48.752;2023-12-20T01:33:54;97323.28;;;0.71;100.00
42603;BME280;28233;55.748;48.752;2023-12-20T01:35:56;97331.72;;;0.78;100.00
42603;BME280;28233;55.748;48.752;2023-12-20T01:37:59;97332.53;;;0.79;100.00
42603;BME280;28233;55.748;48.752;2023-12-20T01:40:02;97336.16;;;0.74;100.00
42603;BME280;28233;55.748;48.752;2023-12-20T01:42:05;97325.66;;;0.73;100.00
42603;BME280;28233;55.748;48.752;2023-12-20T01:44:08;97346.53;;;0.81;100.00
42603;BME280;28233;55.748;48.752;2023-12-20T01:46:12;97338.72;;;0.79;100.00
42603;BME280;28233;55.748;48.752;2023-12-20T01:48:16;97350.03;;;0.81;100.00
42603;BME280;28233;55.748;48.752;2023-12-20T01:50:19;97346.81;;;0.79;100.00
42603;BME280;28233;55.748;48.752;2023-12-20T01:52:23;97344.13;;;0.79;100.00
42603;BME280;28233;55.748;48.752;2023-12-20T01:54:28;97340.81;;;0.82;100.00
42603;BME280;28233;55.748;48.752;2023-12-20T01:56:32;97348.09;;;0.82;100.00
42603;BME280;28233;55.748;48.752;2023-12-20T01:58:39;97343.97;;;0.84;100.00
42603;BME280;28233;55.748;48.752;2023-12-20T02:00:44;97332.22;;;0.80;100.00
42603;BME280;28233;55.748;48.752;2023-12-20T02:02:47;97338.13;;;0.82;100.00
42603;BME280;28233;55.748;48.752;2023-12-20T02:04:52;97317.59;;;0.81;100.00
42603;BME280;28233;55.748;48.752;2023-12-20T02:06:56;97339.69;;;0.83;100.00
42603;BME280;28233;55.748;48.752;2023-12-20T02:08:59;97329.69;;;0.84;100.00
42603;BME280;28233;55.748;48.752;2023-12-20T02:11:02;97336.69;;;0.85;100.00
42603;BME280;28233;55.748;48.752;2023-12-20T02:13:06;97326.66;;;0.86;100.00
42603;BME280;28233;55.748;48.752;2023-12-20T02:15:09;97336.34;;;0.87;100.00
42603;BME280;28233;55.748;48.752;2023-12-20T02:17:12;97333.16;;;0.84;100.00
42603;BME280;28233;55.748;48.752;2023-12-20T02:19:15;97333.66;;;0.87;100.00
42603;BME280;28233;55.748;48.752;2023-12-20T02:21:32;97341.97;;;0.90;100.00
42603;BME280;28233;55.748;48.752;2023-12-20T02:23:36;97355.16;;;0.92;100.00
42603;BME280;28233;55.748;48.752;2023-12-20T02:25:39;97335.75;;;0.90;100.00
42603;BME280;28233;55.748;48.752;2023-12-20T02:27:42;97341.16;;;0.90;100.00
42603;BME280;28233;55.748;48.752;2023-12-20T02:29:47;97340.69;;;0.88;100.00
42603;BME280;28233;55.748;48.752;2023-12-20T02:31:50;97334.16;;;0.89;100.00
42603;BME280;28233;55.748;48.752;2023-12-20T02:33:53;97338.47;;;0.90;100.00
42603;BME280;28233;55.748;48.752;2023-12-20T02:35:57;97344.81;;;0.94;100.00
42603;BME280;28233;55.748;48.752;2023-12-20T02:37:59;97345.94;;;0.93;100.00
42603;BME280;28233;55.748;48.752;2023-12-20T02:40:02;97352.94;;;0.94;100.00
42603;BME280;28233;55.748;48.752;2023-12-20T02:42:07;97357.25;;;0.95;100.00
42603;BME280;28233;55.748;48.752;2023-12-20T02:44:09;97345.94;;;0.93;100.00
42603;BME280;28233;55.748;48.752;2023-12-20T02:46:14;97347.84;;;0.92;100.00
42603;BME280;28233;55.748;48.752;2023-12-20T02:48:18;97346.09;;;0.96;100.00
42603;BME280;28233;55.748;48.752;2023-12-20T02:50:21;97355.03;;;0.97;100.00
42603;BME280;28233;55.748;48.752;2023-12-20T02:52:24;97357.41;;;0.98;100.00
42603;BME280;28233;55.748;48.752;2023-12-20T02:54:27;97354.09;;;1.01;100.00
42603;BME280;28233;55.748;48.752;2023-12-20T02:56:32;97354.09;;;1.01;100.00
42603;BME280;28233;55.748;48.752;2023-12-20T02:58:35;97359.66;;;1.05;100.00
42603;BME280;28233;55.748;48.752;2023-12-20T03:00:37;97363.16;;;1.05;100.00
42603;BME280;28233;55.748;48.752;2023-12-20T03:02:40;97359.19;;;1.03;100.00
42603;BME280;28233;55.748;48.752;2023-12-20T03:04:43;97362.22;;;1.01;100.00
42603;BME280;28233;55.748;48.752;2023-12-20T03:06:46;97362.38;;;1.05;100.00
42603;BME280;28233;55.748;48.752;2023-12-20T03:08:49;97363.00;;;1.02;100.00
42603;BME280;28233;55.748;48.752;2023-12-20T03:10:51;97365.88;;;1.05;100.00
42603;BME280;28233;55.748;48.752;2023-12-20T03:12:56;97367.16;;;1.08;100.00
42603;BME280;28233;55.748;48.752;2023-12-20T03:14:59;97358.25;;;1.08;100.00
42603;BME280;28233;55.748;48.752;2023-12-20T03:17:02;97366.06;;;1.09;100.00
42603;BME280;28233;55.748;48.752;2023-12-20T03:19:04;97367.97;;;1.09;100.00
42603;BME280;28233;55.748;48.752;2023-12-20T03:21:07;97369.72;;;1.13;100.00
42603;BME280;28233;55.748;48.752;2023-12-20T03:23:10;97369.72;;;1.13;100.00
42603;BME280;28233;55.748;48.752;2023-12-20T03:25:13;97374.31;;;1.13;100.00
42603;BME280;28233;55.748;48.752;2023-12-20T03:27:16;97368.59;;;1.14;100.00
42603;BME280;28233;55.748;48.752;2023-12-20T03:29:19;97373.72;;;1.16;100.00
42603;BME280;28233;55.748;48.752;2023-12-20T03:31:22;97379.91;;;1.16;100.00
42603;BME280;28233;55.748;48.752;2023-12-20T03:33:25;97370.69;;;1.17;100.00
42603;BME280;28233;55.748;48.752;2023-12-20T03:35:28;97377.06;;;1.21;100.00
42603;BME280;28233;55.748;48.752;2023-12-20T03:37:30;97385.97;;;1.22;100.00
42603;BME280;28233;55.748;48.752;2023-12-20T03:39:33;97383.75;;;1.24;100.00
42603;BME280;28233;55.748;48.752;2023-12-20T03:41:36;97383.75;;;1.24;100.00
42603;BME280;28233;55.748;48.752;2023-12-20T03:43:39;97390.59;;;1.21;100.00
42603;BME280;28233;55.748;48.752;2023-12-20T03:45:42;97391.88;;;1.24;100.00
42603;BME280;28233;55.748;48.752;2023-12-20T03:47:45;97382.34;;;1.26;100.00
42603;BME280;28233;55.748;48.752;2023-12-20T03:49:49;97380.06;;;1.20;100.00
42603;BME280;28233;55.748;48.752;2023-12-20T03:51:52;97395.84;;;1.26;100.00
42603;BME280;28233;55.748;48.752;2023-12-20T03:53:55;97405.59;;;1.27;100.00
42603;BME280;28233;55.748;48.752;2023-12-20T03:55:57;97400.66;;;1.30;100.00
42603;BME280;28233;55.748;48.752;2023-12-20T03:58:00;97405.44;;;1.33;100.00
42603;BME280;28233;55.748;48.752;2023-12-20T04:00:04;97404.31;;;1.34;100.00
42603;BME280;28233;55.748;48.752;2023-12-20T04:02:08;97419.75;;;1.33;100.00
42603;BME280;28233;55.748;48.752;2023-12-20T04:04:11;97407.84;;;1.34;100.00
42603;BME280;28233;55.748;48.752;2023-12-20T04:06:20;97421.03;;;1.36;100.00
42603;BME280;28233;55.748;48.752;2023-12-20T04:08:23;97405.13;;;1.34;100.00
42603;BME280;28233;55.748;48.752;2023-12-20T04:10:26;97414.84;;;1.35;100.00
42603;BME280;28233;55.748;48.752;2023-12-20T04:12:29;97407.22;;;1.37;100.00
42603;BME280;28233;55.748;48.752;2023-12-20T04:14:32;97413.41;;;1.38;100.00
42603;BME280;28233;55.748;48.752;2023-12-20T04:16:35;97417.41;;;1.40;100.00
42603;BME280;28233;55.748;48.752;2023-12-20T04:18:38;97424.41;;;1.41;100.00
42603;BME280;28233;55.748;48.752;2023-12-20T04:20:41;97414.88;;;1.44;100.00
42603;BME280;28233;55.748;48.752;2023-12-20T04:22:44;97415.19;;;1.42;100.00
42603;BME280;28233;55.748;48.752;2023-12-20T04:24:47;97431.13;;;1.44;100.00
42603;BME280;28233;55.748;48.752;2023-12-20T04:26:49;97415.81;;;1.39;100.00
42603;BME280;28233;55.748;48.752;2023-12-20T04:28:52;97425.38;;;1.45;100.00
42603;BME280;28233;55.748;48.752;2023-12-20T04:30:56;97419.81;;;1.42;100.00
42603;BME280;28233;55.748;48.752;2023-12-20T04:32:59;97413.41;;;1.38;100.00
42603;BME280;28233;55.748;48.752;2023-12-20T04:35:02;97430.78;;;1.45;100.00
42603;BME280;28233;55.748;48.752;2023-12-20T04:37:06;97430.00;;;1.45;100.00
42603;BME280;28233;55.748;48.752;2023-12-20T04:39:09;97435.41;;;1.45;100.00
42603;BME280;28233;55.748;48.752;2023-12-20T04:41:12;97428.91;;;1.46;100.00
42603;BME280;28233;55.748;48.752;2023-12-20T04:43:18;97442.59;;;1.50;100.00
42603;BME280;28233;55.748;48.752;2023-12-20T04:45:21;97436.38;;;1.49;100.00
42603;BME280;28233;55.748;48.752;2023-12-20T04:47:26;97438.44;;;1.52;100.00
42603;BME280;28233;55.748;48.752;2023-12-20T04:49:29;97449.47;;;1.56;100.00
42603;BME280;28233;55.748;48.752;2023-12-20T04:51:35;97450.25;;;1.56;100.00
42603;BME280;28233;55.748;48.752;2023-12-20T04:53:38;97443.72;;;1.48;100.00
42603;BME280;28233;55.748;48.752;2023-12-20T04:55:40;97445.47;;;1.53;100.00
42603;BME280;28233;55.748;48.752;2023-12-20T04:57:43;97451.69;;;1.54;100.00
42603;BME280;28233;55.748;48.752;2023-12-20T04:59:46;97463.28;;;1.54;100.00
42603;BME280;28233;55.748;48.752;2023-12-20T05:01:49;97464.88;;;1.55;100.00
42603;BME280;28233;55.748;48.752;2023-12-20T05:03:52;97454.06;;;1.55;100.00
42603;BME280;28233;55.748;48.752;2023-12-20T05:05:55;97457.41;;;1.52;100.00
42603;BME280;28233;55.748;48.752;2023-12-20T05:07:58;97471.13;;;1.56;100.00
42603;BME280;28233;55.748;48.752;2023-12-20T05:10:02;97465.69;;;1.56;100.00
42603;BME280;28233;55.748;48.752;2023-12-20T05:12:07;97477.03;;;1.58;100.00
42603;BME280;28233;55.748;48.752;2023-12-20T05:14:10;97473.97;;;1.59;100.00
42603;BME280;28233;55.748;48.752;2023-12-20T05:16:12;97473.19;;;1.59;100.00
42603;BME280;28233;55.748;48.752;2023-12-20T05:18:16;97473.19;;;1.59;100.00
42603;BME280;28233;55.748;48.752;2023-12-20T05:20:19;97471.91;;;1.56;100.00
42603;BME280;28233;55.748;48.752;2023-12-20T05:22:22;97477.31;;;1.56;100.00
42603;BME280;28233;55.748;48.752;2023-12-20T05:24:25;97476.19;;;1.57;100.00
42603;BME280;28233;55.748;48.752;2023-12-20T05:26:28;97477.81;;;1.58;100.00
42603;BME280;28233;55.748;48.752;2023-12-20T05:28:32;97480.19;;;1.60;100.00
42603;BME280;28233;55.748;48.752;2023-12-20T05:30:35;97476.88;;;1.63;100.00
42603;BME280;28233;55.748;48.752;2023-12-20T05:32:38;97485.78;;;1.63;100.00
42603;BME280;28233;55.748;48.752;2023-12-20T05:34:40;97476.25;;;1.66;100.00
42603;BME280;28233;55.748;48.752;2023-12-20T05:36:43;97496.47;;;1.68;100.00
42603;BME280;28233;55.748;48.752;2023-12-20T05:38:46;97486.91;;;1.71;100.00
42603;BME280;28233;55.748;48.752;2023-12-20T05:40:49;97492.81;;;1.73;100.00
42603;BME280;28233;55.748;48.752;2023-12-20T05:42:52;97500.63;;;1.75;100.00
42603;BME280;28233;55.748;48.752;2023-12-20T05:44:55;97503.00;;;1.76;100.00
42603;BME280;28233;55.748;48.752;2023-12-20T05:47:00;97501.44;;;1.75;100.00
42603;BME280;28233;55.748;48.752;2023-12-20T05:49:03;97496.31;;;1.74;100.00
42603;BME280;28233;55.748;48.752;2023-12-20T05:51:06;97511.97;;;1.77;100.00
42603;BME280;28233;55.748;48.752;2023-12-20T05:53:09;97492.19;;;1.76;100.00
42603;BME280;28233;55.748;48.752;2023-12-20T05:55:12;97505.13;;;1.79;100.00
42603;BME280;28233;55.748;48.752;2023-12-20T05:57:15;97512.13;;;1.80;100.00
42603;BME280;28233;55.748;48.752;2023-12-20T05:59:18;97515.81;;;1.84;100.00
42603;BME280;28233;55.748;48.752;2023-12-20T06:01:21;97505.13;;;1.79;100.00
42603;BME280;28233;55.748;48.752;2023-12-20T06:03:24;97512.78;;;1.86;100.00
42603;BME280;28233;55.748;48.752;2023-12-20T06:05:26;97509.44;;;1.89;100.00
42603;BME280;28233;55.748;48.752;2023-12-20T06:07:29;97511.38;;;1.88;100.00
42603;BME280;28233;55.748;48.752;2023-12-20T06:09:32;97518.84;;;1.92;100.00
42603;BME280;28233;55.748;48.752;2023-12-20T06:11:35;97519.66;;;1.92;100.00
42603;BME280;28233;55.748;48.752;2023-12-20T06:13:38;97518.53;;;1.93;100.00
42603;BME280;28233;55.748;48.752;2023-12-20T06:15:41;97520.78;;;2.00;100.00
42603;BME280;28233;55.748;48.752;2023-12-20T06:17:44;97528.91;;;2.00;100.00
42603;BME280;28233;55.748;48.752;2023-12-20T06:19:47;97537.84;;;2.00;100.00
42603;BME280;28233;55.748;48.752;2023-12-20T06:21:51;97540.72;;;2.04;100.00
42603;BME280;28233;55.748;48.752;2023-12-20T06:23:53;97536.72;;;2.01;100.00
42603;BME280;28233;55.748;48.752;2023-12-20T06:25:57;97534.50;;;2.03;100.00
42603;BME280;28233;55.748;48.752;2023-12-20T06:28:00;97541.84;;;2.03;100.00
42603;BME280;28233;55.748;48.752;2023-12-20T06:30:03;97540.56;;;2.09;100.00
42603;BME280;28233;55.748;48.752;2023-12-20T06:32:07;97545.97;;;2.09;100.00
42603;BME280;28233;55.748;48.752;2023-12-20T06:34:10;97559.22;;;2.10;100.00
42603;BME280;28233;55.748;48.752;2023-12-20T06:36:13;97551.88;;;2.11;100.00
42603;BME280;28233;55.748;48.752;2023-12-20T06:38:18;97557.31;;;2.11;100.00
42603;BME280;28233;55.748;48.752;2023-12-20T06:40:21;97558.09;;;2.11;100.00
42603;BME280;28233;55.748;48.752;2023-12-20T06:42:24;97565.44;;;2.11;100.00
42603;BME280;28233;55.748;48.752;2023-12-20T06:44:27;97568.63;;;2.13;100.00
42603;BME280;28233;55.748;48.752;2023-12-20T06:46:30;97572.13;;;2.14;100.00
42603;BME280;28233;55.748;48.752;2023-12-20T06:48:32;97568.63;;;2.13;100.00
42603;BME280;28233;55.748;48.752;2023-12-20T06:50:35;97568.94;;;2.11;100.00
42603;BME280;28233;55.748;48.752;2023-12-20T06:52:42;97565.91;;;2.13;100.00
42603;BME280;28233;55.748;48.752;2023-12-20T06:54:45;97564.50;;;2.16;100.00
42603;BME280;28233;55.748;48.752;2023-12-20T06:56:48;97558.44;;;2.19;100.00
42603;BME280;28233;55.748;48.752;2023-12-20T06:58:50;97555.13;;;2.22;100.00
42603;BME280;28233;55.748;48.752;2023-12-20T07:00:53;97552.06;;;2.23;100.00
42603;BME280;28233;55.748;48.752;2023-12-20T07:02:56;97561.97;;;2.19;100.00
42603;BME280;28233;55.748;48.752;2023-12-20T07:04:59;97571.22;;;2.27;100.00
42603;BME280;28233;55.748;48.752;2023-12-20T07:07:04;97584.13;;;2.30;100.00
42603;BME280;28233;55.748;48.752;2023-12-20T07:09:07;97576.97;;;2.34;100.00
42603;BME280;28233;55.748;48.752;2023-12-20T07:11:10;97569.34;;;2.36;100.00
42603;BME280;28233;55.748;48.752;2023-12-20T07:13:13;97566.13;;;2.34;100.00
42603;BME280;28233;55.748;48.752;2023-12-20T07:15:16;97571.41;;;2.39;100.00
42603;BME280;28233;55.748;48.752;2023-12-20T07:17:19;97565.97;;;2.39;100.00
42603;BME280;28233;55.748;48.752;2023-12-20T07:19:22;97572.84;;;2.37;100.00
42603;BME280;28233;55.748;48.752;2023-12-20T07:21:25;97564.41;;;2.38;100.00
42603;BME280;28233;55.748;48.752;2023-12-20T07:23:28;97564.53;;;2.42;100.00
42603;BME280;28233;55.748;48.752;2023-12-20T07:25:31;97566.47;;;2.41;100.00
42603;BME280;28233;55.748;48.752;2023-12-20T07:27:36;97556.41;;;2.42;100.00
42603;BME280;28233;55.748;48.752;2023-12-20T07:29:39;97547.34;;;2.38;100.00
42603;BME280;28233;55.748;48.752;2023-12-20T07:31:42;97559.47;;;2.40;100.00
42603;BME280;28233;55.748;48.752;2023-12-20T07:33:45;97551.63;;;2.39;100.00
42603;BME280;28233;55.748;48.752;2023-12-20T07:35:48;97547.97;;;2.43;100.00
42603;BME280;28233;55.748;48.752;2023-12-20T07:37:51;97537.63;;;2.45;100.00
42603;BME280;28233;55.748;48.752;2023-12-20T07:39:54;97551.19;;;2.54;100.00
42603;BME280;28233;55.748;48.752;2023-12-20T07:41:57;97550.22;;;2.59;100.00
42603;BME280;28233;55.748;48.752;2023-12-20T07:44:00;97556.47;;;2.59;100.00
42603;BME280;28233;55.748;48.752;2023-12-20T07:46:06;97564.59;;;2.59;100.00
42603;BME280;28233;55.748;48.752;2023-12-20T07:48:10;97556.94;;;2.61;100.00
42603;BME280;28233;55.748;48.752;2023-12-20T07:50:12;97566.66;;;2.62;100.00
42603;BME280;28233;55.748;48.752;2023-12-20T07:52:15;97569.56;;;2.66;100.00
42603;BME280;28233;55.748;48.752;2023-12-20T07:54:18;97577.84;;;2.69;100.00
42603;BME280;28233;55.748;48.752;2023-12-20T07:56:21;97566.69;;;2.71;100.00
42603;BME280;28233;55.748;48.752;2023-12-20T07:58:24;97576.56;;;2.75;100.00
42603;BME280;28233;55.748;48.752;2023-12-20T08:00:46;97579.28;;;2.75;100.00
42603;BME280;28233;55.748;48.752;2023-12-20T08:02:49;97573.53;;;2.77;100.00
42603;BME280;28233;55.748;48.752;2023-12-20T08:04:51;97571.78;;;2.81;100.00
42603;BME280;28233;55.748;48.752;2023-12-20T08:06:54;97582.81;;;2.85;100.00
42603;BME280;28233;55.748;48.752;2023-12-20T08:08:58;97565.56;;;2.81;100.00
42603;BME280;28233;55.748;48.752;2023-12-20T08:11:08;97560.94;;;2.81;100.00
42603;BME280;28233;55.748;48.752;2023-12-20T08:13:11;97570.66;;;2.82;100.00
42603;BME280;28233;55.748;48.752;2023-12-20T08:15:13;97572.44;;;2.78;100.00
42603;BME280;28233;55.748;48.752;2023-12-20T08:17:17;97578.94;;;2.77;100.00
42603;BME280;28233;55.748;48.752;2023-12-20T08:19:21;97584.84;;;2.79;100.00
42603;BME280;28233;55.748;48.752;2023-12-20T08:21:24;97574.97;;;2.74;100.00
42603;BME280;28233;55.748;48.752;2023-12-20T08:23:27;97584.53;;;2.72;100.00
42603;BME280;28233;55.748;48.752;2023-12-20T08:25:33;97571.13;;;2.67;100.00
42603;BME280;28233;55.748;48.752;2023-12-20T08:27:42;97578.78;;;2.65;100.00
42603;BME280;28233;55.748;48.752;2023-12-20T08:29:45;97591.25;;;2.66;100.00
42603;BME280;28233;55.748;48.752;2023-12-20T08:31:52;97586.13;;;2.64;100.00
42603;BME280;28233;55.748;48.752;2023-12-20T08:33:56;97583.41;;;2.64;100.00
42603;BME280;28233;55.748;48.752;2023-12-20T08:35:59;97576.88;;;2.65;100.00
42603;BME280;28233;55.748;48.752;2023-12-20T08:38:02;97576.88;;;2.57;100.00
42603;BME280;28233;55.748;48.752;2023-12-20T08:40:07;97579.91;;;2.64;100.00
42603;BME280;28233;55.748;48.752;2023-12-20T08:42:10;97591.25;;;2.66;100.00
42603;BME280;28233;55.748;48.752;2023-12-20T08:44:12;97585.19;;;2.69;100.00
42603;BME280;28233;55.748;48.752;2023-12-20T08:46:15;97586.16;;;2.73;100.00
42603;BME280;28233;55.748;48.752;2023-12-20T08:48:18;97602.41;;;2.73;100.00
42603;BME280;28233;55.748;48.752;2023-12-20T08:50:21;97597.44;;;2.75;100.00
42603;BME280;28233;55.748;48.752;2023-12-20T08:52:24;97605.59;;;2.75;100.00
42603;BME280;28233;55.748;48.752;2023-12-20T08:54:29;97583.09;;;2.74;100.00
42603;BME280;28233;55.748;48.752;2023-12-20T08:56:32;97592.69;;;2.81;100.00
42603;BME280;28233;55.748;48.752;2023-12-20T08:58:35;97574.66;;;2.85;100.00
42603;BME280;28233;55.748;48.752;2023-12-20T09:00:38;97574.31;;;2.86;100.00
42603;BME280;28233;55.748;48.752;2023-12-20T09:02:42;97571.63;;;2.86;100.00
42603;BME280;28233;55.748;48.752;2023-12-20T09:04:44;97570.53;;;2.87;100.00
42603;BME280;28233;55.748;48.752;2023-12-20T09:06:47;97571.31;;;2.88;100.00
42603;BME280;28233;55.748;48.752;2023-12-20T09:08:51;97571.47;;;2.83;100.00
42603;BME280;28233;55.748;48.752;2023-12-20T09:10:53;97569.56;;;2.83;100.00
42603;BME280;28233;55.748;48.752;2023-12-20T09:12:57;97566.34;;;2.81;100.00
42603;BME280;28233;55.748;48.752;2023-12-20T09:15:00;97565.22;;;2.82;100.00
42603;BME280;28233;55.748;48.752;2023-12-20T09:17:07;97583.41;;;2.82;100.00
42603;BME280;28233;55.748;48.752;2023-12-20T09:19:11;97581.34;;;2.79;100.00
42603;BME280;28233;55.748;48.752;2023-12-20T09:21:14;97594.59;;;2.80;100.00
42603;BME280;28233;55.748;48.752;2023-12-20T09:23:17;97598.09;;;2.81;100.00
42603;BME280;28233;55.748;48.752;2023-12-20T09:25:20;97593.31;;;2.78;100.00
42603;BME280;28233;55.748;48.752;2023-12-20T09:27:25;97588.22;;;2.76;100.00
42603;BME280;28233;55.748;48.752;2023-12-20T09:29:28;97596.16;;;2.72;100.00
42603;BME280;28233;55.748;48.752;2023-12-20T09:31:31;97591.56;;;2.73;100.00
42603;BME280;28233;55.748;48.752;2023-12-20T09:33:35;97597.59;;;2.70;100.00
42603;BME280;28233;55.748;48.752;2023-12-20T09:35:38;97599.84;;;2.68;100.00
42603;BME280;28233;55.748;48.752;2023-12-20T09:37:41;97602.41;;;2.73;100.00
42603;BME280;28233;55.748;48.752;2023-12-20T09:39:47;97596.50;;;2.71;100.00
42603;BME280;28233;55.748;48.752;2023-12-20T09:42:01;97597.59;;;2.70;100.00
42603;BME280;28233;55.748;48.752;2023-12-20T09:44:05;97599.53;;;2.69;100.00
42603;BME280;28233;55.748;48.752;2023-12-20T09:46:12;97601.75;;;2.67;100.00
42603;BME280;28233;55.748;48.752;2023-12-20T09:48:18;97615.16;;;2.64;100.00
42603;BME280;28233;55.748;48.752;2023-12-20T09:50:22;97608.31;;;2.66;100.00
42603;BME280;28233;55.748;48.752;2023-12-20T09:52:26;97597.94;;;2.68;100.00
42603;BME280;28233;55.748;48.752;2023-12-20T09:54:29;97605.75;;;2.70;100.00
42603;BME280;28233;55.748;48.752;2023-12-20T09:56:33;97622.00;;;2.70;100.00
42603;BME280;28233;55.748;48.752;2023-12-20T09:58:37;97605.25;;;2.68;100.00
42603;BME280;28233;55.748;48.752;2023-12-20T10:00:42;97618.03;;;2.67;100.00
42603;BME280;28233;55.748;48.752;2023-12-20T10:02:56;97620.25;;;2.65;100.00
42603;BME280;28233;55.748;48.752;2023-12-20T10:05:00;97619.44;;;2.65;100.00
42603;BME280;28233;55.748;48.752;2023-12-20T10:07:05;97621.53;;;2.68;100.00
42603;BME280;28233;55.748;48.752;2023-12-20T10:09:10;97619.16;;;2.66;100.00
42603;BME280;28233;55.748;48.752;2023-12-20T10:11:13;97628.06;;;2.67;100.00
42603;BME280;28233;55.748;48.752;2023-12-20T10:13:16;97626.16;;;2.67;100.00
42603;BME280;28233;55.748;48.752;2023-12-20T10:15:19;97619.31;;;2.70;100.00
42603;BME280;28233;55.748;48.752;2023-12-20T10:17:22;97620.91;;;2.71;100.00
42603;BME280;28233;55.748;48.752;2023-12-20T10:19:25;97619.47;;;2.73;100.00
42603;BME280;28233;55.748;48.752;2023-12-20T10:21:28;97615.50;;;2.71;100.00
42603;BME280;28233;55.748;48.752;2023-12-20T10:23:34;97618.19;;;2.71;100.00
42603;BME280;28233;55.748;48.752;2023-12-20T10:25:37;97616.13;;;2.77;100.00
42603;BME280;28233;55.748;48.752;2023-12-20T10:27:40;97615.47;;;2.80;100.00
42603;BME280;28233;55.748;48.752;2023-12-20T10:29:43;97617.56;;;2.83;100.00
42603;BME280;28233;55.748;48.752;2023-12-20T10:31:46;97617.06;;;2.72;100.00
42603;BME280;28233;55.748;48.752;2023-12-20T10:33:49;97624.09;;;2.73;100.00
42603;BME280;28233;55.748;48.752;2023-12-20T10:35:53;97622.69;;;2.75;100.00
42603;BME280;28233;55.748;48.752;2023-12-20T10:37:57;97634.31;;;2.76;100.00
42603;BME280;28233;55.748;48.752;2023-12-20T10:40:03;97620.44;;;2.78;100.00
42603;BME280;28233;55.748;48.752;2023-12-20T10:42:07;97611.50;;;2.77;100.00
42603;BME280;28233;55.748;48.752;2023-12-20T10:44:12;97627.28;;;2.75;100.00
42603;BME280;28233;55.748;48.752;2023-12-20T10:46:17;97624.56;;;2.75;100.00